sensor_id;sensor_type;location;lat;lon;timestamp;P1;durP1;ratioP1;P2;durP2;ratioP2
52035;SDS011;38046;49.448;32.074;2022-11-18T00:00:46;7.90;;;6.13;;
52035;SDS011;38046;49.448;32.074;2022-11-18T00:03:12;8.65;;;5.93;;
52035;SDS011;38046;49.448;32.074;2022-11-18T00:05:37;7.72;;;5.70;;
52035;SDS011;38046;49.448;32.074;2022-11-18T00:08:03;6.20;;;5.50;;
52035;SDS011;38046;49.448;32.074;2022-11-18T00:10:29;6.65;;;5.75;;
52035;SDS011;38046;49.448;32.074;2022-11-18T00:12:54;6.28;;;5.20;;
52035;SDS011;38046;49.448;32.074;2022-11-18T00:15:39;6.63;;;5.57;;
52035;SDS011;38046;49.448;32.074;2022-11-18T00:18:05;6.65;;;5.60;;
52035;SDS011;38046;49.448;32.074;2022-11-18T00:20:31;6.90;;;5.78;;
52035;SDS011;38046;49.448;32.074;2022-11-18T00:22:58;6.32;;;5.00;;
52035;SDS011;38046;49.448;32.074;2022-11-18T00:25:24;7.00;;;5.38;;
52035;SDS011;38046;49.448;32.074;2022-11-18T00:27:50;7.60;;;5.47;;
52035;SDS011;38046;49.448;32.074;2022-11-18T00:30:16;7.55;;;5.40;;
52035;SDS011;38046;49.448;32.074;2022-11-18T00:32:41;6.32;;;4.57;;
52035;SDS011;38046;49.448;32.074;2022-11-18T00:35:07;7.45;;;5.45;;
52035;SDS011;38046;49.448;32.074;2022-11-18T00:37:33;7.10;;;5.38;;
52035;SDS011;38046;49.448;32.074;2022-11-18T00:39:58;7.32;;;6.13;;
52035;SDS011;38046;49.448;32.074;2022-11-18T00:42:24;7.00;;;5.00;;
52035;SDS011;38046;49.448;32.074;2022-11-18T00:45:08;6.70;;;5.82;;
52035;SDS011;38046;49.448;32.074;2022-11-18T00:47:34;5.25;;;4.32;;
52035;SDS011;38046;49.448;32.074;2022-11-18T00:49:59;6.95;;;5.00;;
52035;SDS011;38046;49.448;32.074;2022-11-18T00:52:25;7.03;;;5.57;;
52035;SDS011;38046;49.448;32.074;2022-11-18T00:54:51;7.45;;;5.72;;
52035;SDS011;38046;49.448;32.074;2022-11-18T00:57:16;8.18;;;5.47;;
52035;SDS011;38046;49.448;32.074;2022-11-18T00:59:42;7.45;;;5.72;;
52035;SDS011;38046;49.448;32.074;2022-11-18T01:02:07;7.50;;;6.18;;
52035;SDS011;38046;49.448;32.074;2022-11-18T01:04:33;6.88;;;5.72;;
52035;SDS011;38046;49.448;32.074;2022-11-18T01:06:59;6.97;;;5.05;;
52035;SDS011;38046;49.448;32.074;2022-11-18T01:09:24;7.20;;;5.18;;
52035;SDS011;38046;49.448;32.074;2022-11-18T01:11:50;6.97;;;5.70;;
52035;SDS011;38046;49.448;32.074;2022-11-18T01:14:34;5.85;;;4.45;;
52035;SDS011;38046;49.448;32.074;2022-11-18T01:17:00;6.22;;;4.80;;
52035;SDS011;38046;49.448;32.074;2022-11-18T01:19:25;7.35;;;5.15;;
52035;SDS011;38046;49.448;32.074;2022-11-18T01:21:51;7.22;;;5.63;;
52035;SDS011;38046;49.448;32.074;2022-11-18T01:24:17;7.43;;;5.75;;
52035;SDS011;38046;49.448;32.074;2022-11-18T01:26:43;7.25;;;5.10;;
52035;SDS011;38046;49.448;32.074;2022-11-18T01:29:08;6.53;;;5.25;;
52035;SDS011;38046;49.448;32.074;2022-11-18T01:31:34;7.22;;;5.32;;
52035;SDS011;38046;49.448;32.074;2022-11-18T01:34:01;6.95;;;5.68;;
52035;SDS011;38046;49.448;32.074;2022-11-18T01:36:27;7.00;;;5.40;;
52035;SDS011;38046;49.448;32.074;2022-11-18T01:38:53;7.68;;;6.00;;
52035;SDS011;38046;49.448;32.074;2022-11-18T01:41:21;7.68;;;5.82;;
52035;SDS011;38046;49.448;32.074;2022-11-18T01:46:52;7.45;;;5.65;;
52035;SDS011;38046;49.448;32.074;2022-11-18T01:49:18;7.05;;;5.07;;
52035;SDS011;38046;49.448;32.074;2022-11-18T01:51:48;5.68;;;4.90;;
52035;SDS011;38046;49.448;32.074;2022-11-18T01:54:24;6.22;;;5.22;;
52035;SDS011;38046;49.448;32.074;2022-11-18T01:57:01;5.88;;;4.97;;
52035;SDS011;38046;49.448;32.074;2022-11-18T01:59:34;6.82;;;5.03;;
52035;SDS011;38046;49.448;32.074;2022-11-18T02:02:04;7.93;;;4.95;;
52035;SDS011;38046;49.448;32.074;2022-11-18T02:04:35;7.57;;;5.55;;
52035;SDS011;38046;49.448;32.074;2022-11-18T02:07:03;6.32;;;5.30;;
52035;SDS011;38046;49.448;32.074;2022-11-18T02:09:29;6.95;;;5.57;;
52035;SDS011;38046;49.448;32.074;2022-11-18T02:11:54;7.55;;;4.90;;
52035;SDS011;38046;49.448;32.074;2022-11-18T02:14:27;7.43;;;5.35;;
52035;SDS011;38046;49.448;32.074;2022-11-18T02:17:20;7.15;;;4.90;;
52035;SDS011;38046;49.448;32.074;2022-11-18T02:22:59;7.00;;;5.28;;
52035;SDS011;38046;49.448;32.074;2022-11-18T02:33:55;6.85;;;5.45;;
52035;SDS011;38046;49.448;32.074;2022-11-18T02:36:28;5.78;;;4.95;;
52035;SDS011;38046;49.448;32.074;2022-11-18T02:39:04;6.82;;;5.53;;
52035;SDS011;38046;49.448;32.074;2022-11-18T02:41:33;7.30;;;5.80;;
52035;SDS011;38046;49.448;32.074;2022-11-18T02:44:08;7.38;;;5.05;;
52035;SDS011;38046;49.448;32.074;2022-11-18T02:46:47;6.03;;;5.00;;
52035;SDS011;38046;49.448;32.074;2022-11-18T02:49:21;6.35;;;5.60;;
52035;SDS011;38046;49.448;32.074;2022-11-18T02:51:52;7.13;;;5.57;;
52035;SDS011;38046;49.448;32.074;2022-11-18T02:54:20;6.03;;;4.90;;
52035;SDS011;38046;49.448;32.074;2022-11-18T02:56:48;6.47;;;5.43;;
52035;SDS011;38046;49.448;32.074;2022-11-18T02:59:16;6.38;;;5.15;;
52035;SDS011;38046;49.448;32.074;2022-11-18T03:01:43;7.25;;;4.85;;
52035;SDS011;38046;49.448;32.074;2022-11-18T03:04:09;6.55;;;4.97;;
52035;SDS011;38046;49.448;32.074;2022-11-18T03:06:40;6.38;;;4.85;;
52035;SDS011;38046;49.448;32.074;2022-11-18T03:09:25;5.40;;;4.47;;
52035;SDS011;38046;49.448;32.074;2022-11-18T03:25:27;7.63;;;6.00;;
52035;SDS011;38046;49.448;32.074;2022-11-18T03:28:24;6.10;;;5.07;;
52035;SDS011;38046;49.448;32.074;2022-11-18T03:33:27;7.20;;;5.60;;
52035;SDS011;38046;49.448;32.074;2022-11-18T03:36:00;6.03;;;4.90;;
52035;SDS011;38046;49.448;32.074;2022-11-18T03:38:30;7.07;;;5.10;;
52035;SDS011;38046;49.448;32.074;2022-11-18T03:41:00;6.40;;;4.70;;
52035;SDS011;38046;49.448;32.074;2022-11-18T03:43:31;5.85;;;4.85;;
52035;SDS011;38046;49.448;32.074;2022-11-18T03:46:04;6.50;;;5.68;;
52035;SDS011;38046;49.448;32.074;2022-11-18T03:48:37;7.18;;;5.55;;
52035;SDS011;38046;49.448;32.074;2022-11-18T03:51:10;6.18;;;4.93;;
52035;SDS011;38046;49.448;32.074;2022-11-18T03:53:41;5.80;;;5.15;;
52035;SDS011;38046;49.448;32.074;2022-11-18T03:56:18;7.03;;;5.03;;
52035;SDS011;38046;49.448;32.074;2022-11-18T03:59:11;8.20;;;5.38;;
52035;SDS011;38046;49.448;32.074;2022-11-18T04:04:08;6.28;;;4.95;;
52035;SDS011;38046;49.448;32.074;2022-11-18T04:06:36;6.32;;;5.35;;
52035;SDS011;38046;49.448;32.074;2022-11-18T04:09:16;6.72;;;5.57;;
52035;SDS011;38046;49.448;32.074;2022-11-18T04:11:57;6.20;;;5.32;;
52035;SDS011;38046;49.448;32.074;2022-11-18T04:14:37;7.28;;;5.07;;
52035;SDS011;38046;49.448;32.074;2022-11-18T04:17:05;7.43;;;5.68;;
52035;SDS011;38046;49.448;32.074;2022-11-18T04:19:33;5.32;;;4.38;;
52035;SDS011;38046;49.448;32.074;2022-11-18T04:21:59;6.72;;;4.90;;
52035;SDS011;38046;49.448;32.074;2022-11-18T04:24:25;6.90;;;5.28;;
52035;SDS011;38046;49.448;32.074;2022-11-18T04:26:51;5.80;;;4.90;;
52035;SDS011;38046;49.448;32.074;2022-11-18T04:29:16;6.13;;;5.03;;
52035;SDS011;38046;49.448;32.074;2022-11-18T04:31:42;5.35;;;4.85;;
52035;SDS011;38046;49.448;32.074;2022-11-18T04:34:07;6.20;;;5.05;;
52035;SDS011;38046;49.448;32.074;2022-11-18T04:36:33;7.07;;;5.10;;
52035;SDS011;38046;49.448;32.074;2022-11-18T04:38:59;7.80;;;5.75;;
52035;SDS011;38046;49.448;32.074;2022-11-18T04:41:24;7.20;;;5.47;;
52035;SDS011;38046;49.448;32.074;2022-11-18T04:44:10;6.50;;;5.13;;
52035;SDS011;38046;49.448;32.074;2022-11-18T04:46:37;7.07;;;5.68;;
52035;SDS011;38046;49.448;32.074;2022-11-18T04:49:07;6.65;;;4.70;;
52035;SDS011;38046;49.448;32.074;2022-11-18T04:51:33;6.88;;;5.28;;
52035;SDS011;38046;49.448;32.074;2022-11-18T04:53:59;6.93;;;4.82;;
52035;SDS011;38046;49.448;32.074;2022-11-18T04:56:25;6.68;;;5.25;;
52035;SDS011;38046;49.448;32.074;2022-11-18T04:58:51;6.40;;;5.35;;
52035;SDS011;38046;49.448;32.074;2022-11-18T05:01:16;7.03;;;5.82;;
52035;SDS011;38046;49.448;32.074;2022-11-18T05:03:42;6.78;;;5.32;;
52035;SDS011;38046;49.448;32.074;2022-11-18T05:06:07;6.90;;;5.40;;
52035;SDS011;38046;49.448;32.074;2022-11-18T05:08:33;6.15;;;4.97;;
52035;SDS011;38046;49.448;32.074;2022-11-18T05:10:58;6.80;;;5.35;;
52035;SDS011;38046;49.448;32.074;2022-11-18T05:13:44;7.38;;;5.63;;
52035;SDS011;38046;49.448;32.074;2022-11-18T05:16:10;6.95;;;5.30;;
52035;SDS011;38046;49.448;32.074;2022-11-18T05:18:35;7.03;;;5.60;;
52035;SDS011;38046;49.448;32.074;2022-11-18T05:21:04;6.68;;;5.10;;
52035;SDS011;38046;49.448;32.074;2022-11-18T05:23:30;7.00;;;5.22;;
52035;SDS011;38046;49.448;32.074;2022-11-18T05:25:55;5.95;;;4.93;;
52035;SDS011;38046;49.448;32.074;2022-11-18T05:28:21;4.95;;;4.45;;
52035;SDS011;38046;49.448;32.074;2022-11-18T05:30:46;6.07;;;4.70;;
52035;SDS011;38046;49.448;32.074;2022-11-18T05:33:12;5.97;;;4.97;;
52035;SDS011;38046;49.448;32.074;2022-11-18T05:35:38;8.73;;;5.82;;
52035;SDS011;38046;49.448;32.074;2022-11-18T05:38:03;6.15;;;4.65;;
52035;SDS011;38046;49.448;32.074;2022-11-18T05:40:29;5.93;;;4.75;;
52035;SDS011;38046;49.448;32.074;2022-11-18T05:42:55;5.55;;;4.60;;
52035;SDS011;38046;49.448;32.074;2022-11-18T05:45:36;5.93;;;5.03;;
52035;SDS011;38046;49.448;32.074;2022-11-18T05:48:03;6.00;;;5.28;;
52035;SDS011;38046;49.448;32.074;2022-11-18T05:50:31;6.95;;;5.68;;
52035;SDS011;38046;49.448;32.074;2022-11-18T05:52:58;4.90;;;4.03;;
52035;SDS011;38046;49.448;32.074;2022-11-18T05:55:26;6.88;;;4.90;;
52035;SDS011;38046;49.448;32.074;2022-11-18T05:57:57;6.05;;;5.00;;
52035;SDS011;38046;49.448;32.074;2022-11-18T06:00:23;5.43;;;4.65;;
52035;SDS011;38046;49.448;32.074;2022-11-18T06:02:48;7.28;;;5.70;;
52035;SDS011;38046;49.448;32.074;2022-11-18T06:05:16;6.05;;;5.10;;
52035;SDS011;38046;49.448;32.074;2022-11-18T06:07:43;6.32;;;4.70;;
52035;SDS011;38046;49.448;32.074;2022-11-18T06:10:11;7.53;;;5.63;;
52035;SDS011;38046;49.448;32.074;2022-11-18T06:12:46;7.95;;;4.90;;
52035;SDS011;38046;49.448;32.074;2022-11-18T06:17:45;6.78;;;5.22;;
52035;SDS011;38046;49.448;32.074;2022-11-18T06:20:17;5.80;;;4.75;;
52035;SDS011;38046;49.448;32.074;2022-11-18T06:22:45;5.50;;;4.45;;
52035;SDS011;38046;49.448;32.074;2022-11-18T06:25:12;6.38;;;4.72;;
52035;SDS011;38046;49.448;32.074;2022-11-18T06:27:38;6.03;;;4.85;;
52035;SDS011;38046;49.448;32.074;2022-11-18T06:30:04;5.25;;;3.97;;
52035;SDS011;38046;49.448;32.074;2022-11-18T06:32:30;5.78;;;4.57;;
52035;SDS011;38046;49.448;32.074;2022-11-18T06:34:55;5.18;;;4.20;;
52035;SDS011;38046;49.448;32.074;2022-11-18T06:37:21;5.85;;;4.65;;
52035;SDS011;38046;49.448;32.074;2022-11-18T06:39:46;5.82;;;4.32;;
52035;SDS011;38046;49.448;32.074;2022-11-18T06:42:12;5.60;;;4.30;;
52035;SDS011;38046;49.448;32.074;2022-11-18T06:44:58;5.00;;;3.88;;
52035;SDS011;38046;49.448;32.074;2022-11-18T06:47:24;5.18;;;4.03;;
52035;SDS011;38046;49.448;32.074;2022-11-18T06:49:50;3.97;;;3.58;;
52035;SDS011;38046;49.448;32.074;2022-11-18T06:52:15;5.05;;;3.67;;
52035;SDS011;38046;49.448;32.074;2022-11-18T06:54:41;4.60;;;3.95;;
52035;SDS011;38046;49.448;32.074;2022-11-18T06:57:06;4.38;;;3.60;;
52035;SDS011;38046;49.448;32.074;2022-11-18T06:59:32;4.70;;;3.78;;
52035;SDS011;38046;49.448;32.074;2022-11-18T07:01:57;5.88;;;4.38;;
52035;SDS011;38046;49.448;32.074;2022-11-18T07:04:23;6.00;;;4.13;;
52035;SDS011;38046;49.448;32.074;2022-11-18T07:06:49;4.45;;;3.50;;
52035;SDS011;38046;49.448;32.074;2022-11-18T07:09:14;5.80;;;4.05;;
52035;SDS011;38046;49.448;32.074;2022-11-18T07:11:40;4.32;;;3.55;;
52035;SDS011;38046;49.448;32.074;2022-11-18T07:14:06;5.03;;;3.60;;
52035;SDS011;38046;49.448;32.074;2022-11-18T07:16:33;4.70;;;3.33;;
52035;SDS011;38046;49.448;32.074;2022-11-18T07:19:09;4.43;;;3.45;;
52035;SDS011;38046;49.448;32.074;2022-11-18T07:21:37;5.03;;;3.75;;
52035;SDS011;38046;49.448;32.074;2022-11-18T07:24:06;4.53;;;3.63;;
52035;SDS011;38046;49.448;32.074;2022-11-18T07:26:33;4.35;;;3.45;;
52035;SDS011;38046;49.448;32.074;2022-11-18T07:28:59;4.03;;;3.60;;
52035;SDS011;38046;49.448;32.074;2022-11-18T07:31:25;4.57;;;3.78;;
52035;SDS011;38046;49.448;32.074;2022-11-18T07:33:50;5.40;;;4.15;;
52035;SDS011;38046;49.448;32.074;2022-11-18T07:36:19;5.57;;;4.03;;
52035;SDS011;38046;49.448;32.074;2022-11-18T07:38:46;3.88;;;3.47;;
52035;SDS011;38046;49.448;32.074;2022-11-18T07:41:13;4.88;;;3.70;;
52035;SDS011;38046;49.448;32.074;2022-11-18T07:43:40;4.53;;;3.80;;
52035;SDS011;38046;49.448;32.074;2022-11-18T07:48:50;4.18;;;3.45;;
52035;SDS011;38046;49.448;32.074;2022-11-18T07:51:18;3.90;;;3.50;;
52035;SDS011;38046;49.448;32.074;2022-11-18T07:53:46;4.07;;;3.53;;
52035;SDS011;38046;49.448;32.074;2022-11-18T07:56:12;4.40;;;3.42;;
52035;SDS011;38046;49.448;32.074;2022-11-18T07:58:39;3.33;;;3.03;;
52035;SDS011;38046;49.448;32.074;2022-11-18T08:01:13;4.97;;;3.60;;
52035;SDS011;38046;49.448;32.074;2022-11-18T08:03:40;3.97;;;3.35;;
52035;SDS011;38046;49.448;32.074;2022-11-18T08:06:07;3.30;;;3.00;;
52035;SDS011;38046;49.448;32.074;2022-11-18T08:08:34;3.65;;;3.10;;
52035;SDS011;38046;49.448;32.074;2022-11-18T08:11:01;3.45;;;3.15;;
52035;SDS011;38046;49.448;32.074;2022-11-18T08:13:30;3.10;;;2.75;;
52035;SDS011;38046;49.448;32.074;2022-11-18T08:15:56;3.13;;;2.70;;
52035;SDS011;38046;49.448;32.074;2022-11-18T08:18:22;3.25;;;2.95;;
52035;SDS011;38046;49.448;32.074;2022-11-18T08:20:48;3.65;;;3.25;;
52035;SDS011;38046;49.448;32.074;2022-11-18T08:23:14;4.07;;;3.30;;
52035;SDS011;38046;49.448;32.074;2022-11-18T08:25:41;4.93;;;3.45;;
52035;SDS011;38046;49.448;32.074;2022-11-18T08:28:08;3.47;;;2.72;;
52035;SDS011;38046;49.448;32.074;2022-11-18T08:30:35;2.92;;;2.63;;
52035;SDS011;38046;49.448;32.074;2022-11-18T08:33:01;4.05;;;3.10;;
52035;SDS011;38046;49.448;32.074;2022-11-18T08:35:28;3.30;;;3.00;;
52035;SDS011;38046;49.448;32.074;2022-11-18T08:37:54;3.78;;;3.20;;
52035;SDS011;38046;49.448;32.074;2022-11-18T08:40:20;3.53;;;2.95;;
52035;SDS011;38046;49.448;32.074;2022-11-18T08:42:46;4.72;;;3.20;;
52035;SDS011;38046;49.448;32.074;2022-11-18T08:45:11;4.47;;;3.50;;
52035;SDS011;38046;49.448;32.074;2022-11-18T08:47:38;3.97;;;3.58;;
52035;SDS011;38046;49.448;32.074;2022-11-18T08:50:04;3.80;;;3.38;;
52035;SDS011;38046;49.448;32.074;2022-11-18T08:52:32;4.30;;;3.33;;
52035;SDS011;38046;49.448;32.074;2022-11-18T08:54:58;3.70;;;3.20;;
52035;SDS011;38046;49.448;32.074;2022-11-18T08:57:24;3.85;;;3.00;;
52035;SDS011;38046;49.448;32.074;2022-11-18T08:59:50;4.05;;;2.88;;
52035;SDS011;38046;49.448;32.074;2022-11-18T09:02:17;3.08;;;2.80;;
52035;SDS011;38046;49.448;32.074;2022-11-18T09:04:47;4.60;;;3.50;;
52035;SDS011;38046;49.448;32.074;2022-11-18T09:07:14;4.72;;;3.40;;
52035;SDS011;38046;49.448;32.074;2022-11-18T09:09:40;4.03;;;3.30;;
52035;SDS011;38046;49.448;32.074;2022-11-18T09:12:06;5.32;;;3.70;;
52035;SDS011;38046;49.448;32.074;2022-11-18T09:14:33;3.90;;;3.42;;
52035;SDS011;38046;49.448;32.074;2022-11-18T09:16:58;5.40;;;4.05;;
52035;SDS011;38046;49.448;32.074;2022-11-18T09:19:24;4.45;;;3.83;;
52035;SDS011;38046;49.448;32.074;2022-11-18T09:21:50;4.90;;;3.72;;
52035;SDS011;38046;49.448;32.074;2022-11-18T09:24:15;4.47;;;3.65;;
52035;SDS011;38046;49.448;32.074;2022-11-18T09:26:41;4.50;;;3.78;;
52035;SDS011;38046;49.448;32.074;2022-11-18T09:29:07;5.50;;;4.15;;
52035;SDS011;38046;49.448;32.074;2022-11-18T09:31:33;4.32;;;3.67;;
52035;SDS011;38046;49.448;32.074;2022-11-18T09:33:58;6.03;;;4.65;;
52035;SDS011;38046;49.448;32.074;2022-11-18T09:36:25;5.03;;;4.10;;
52035;SDS011;38046;49.448;32.074;2022-11-18T09:38:51;4.68;;;3.83;;
52035;SDS011;38046;49.448;32.074;2022-11-18T09:41:28;5.15;;;3.95;;
52035;SDS011;38046;49.448;32.074;2022-11-18T09:49:18;4.63;;;3.78;;
52035;SDS011;38046;49.448;32.074;2022-11-18T09:51:56;6.00;;;4.10;;
52035;SDS011;38046;49.448;32.074;2022-11-18T09:54:33;6.15;;;4.40;;
52035;SDS011;38046;49.448;32.074;2022-11-18T09:57:00;5.40;;;4.00;;
52035;SDS011;38046;49.448;32.074;2022-11-18T09:59:27;5.15;;;4.00;;
52035;SDS011;38046;49.448;32.074;2022-11-18T10:01:57;4.40;;;3.60;;
52035;SDS011;38046;49.448;32.074;2022-11-18T10:04:35;4.57;;;3.78;;
52035;SDS011;38046;49.448;32.074;2022-11-18T10:07:01;5.25;;;3.80;;
52035;SDS011;38046;49.448;32.074;2022-11-18T10:09:39;6.93;;;4.35;;
52035;SDS011;38046;49.448;32.074;2022-11-18T10:18:10;4.93;;;3.97;;
52035;SDS011;38046;49.448;32.074;2022-11-18T10:23:57;5.03;;;3.70;;
52035;SDS011;38046;49.448;32.074;2022-11-18T10:26:33;4.55;;;3.70;;
52035;SDS011;38046;49.448;32.074;2022-11-18T10:29:00;4.57;;;3.90;;
52035;SDS011;38046;49.448;32.074;2022-11-18T10:31:26;5.10;;;4.22;;
52035;SDS011;38046;49.448;32.074;2022-11-18T10:33:59;6.40;;;5.03;;
52035;SDS011;38046;49.448;32.074;2022-11-18T10:36:26;6.50;;;5.25;;
52035;SDS011;38046;49.448;32.074;2022-11-18T10:39:13;8.55;;;5.68;;
52035;SDS011;38046;49.448;32.074;2022-11-18T10:41:44;7.85;;;5.20;;
52035;SDS011;38046;49.448;32.074;2022-11-18T10:49:52;6.50;;;5.20;;
52035;SDS011;38046;49.448;32.074;2022-11-18T10:52:19;6.63;;;5.20;;
52035;SDS011;38046;49.448;32.074;2022-11-18T10:54:46;6.35;;;5.20;;
52035;SDS011;38046;49.448;32.074;2022-11-18T10:57:50;6.35;;;5.00;;
52035;SDS011;38046;49.448;32.074;2022-11-18T11:00:38;6.70;;;5.47;;
52035;SDS011;38046;49.448;32.074;2022-11-18T11:03:18;7.55;;;5.60;;
52035;SDS011;38046;49.448;32.074;2022-11-18T11:08:47;8.17;;;5.93;;
52035;SDS011;38046;49.448;32.074;2022-11-18T11:14:25;8.77;;;6.25;;
52035;SDS011;38046;49.448;32.074;2022-11-18T11:19:34;6.80;;;5.13;;
52035;SDS011;38046;49.448;32.074;2022-11-18T11:22:21;6.80;;;5.20;;
52035;SDS011;38046;49.448;32.074;2022-11-18T11:24:47;6.75;;;4.85;;
52035;SDS011;38046;49.448;32.074;2022-11-18T11:30:12;5.57;;;4.80;;
52035;SDS011;38046;49.448;32.074;2022-11-18T11:38:45;5.25;;;4.13;;
52035;SDS011;38046;49.448;32.074;2022-11-18T11:41:30;6.13;;;4.88;;
52035;SDS011;38046;49.448;32.074;2022-11-18T11:44:16;5.63;;;4.57;;
52035;SDS011;38046;49.448;32.074;2022-11-18T11:49:59;5.70;;;4.30;;
52035;SDS011;38046;49.448;32.074;2022-11-18T11:52:30;6.13;;;4.68;;
52035;SDS011;38046;49.448;32.074;2022-11-18T11:55:14;5.10;;;4.28;;
52035;SDS011;38046;49.448;32.074;2022-11-18T11:58:03;5.90;;;3.78;;
52035;SDS011;38046;49.448;32.074;2022-11-18T12:00:39;7.15;;;5.28;;
52035;SDS011;38046;49.448;32.074;2022-11-18T12:06:14;6.38;;;4.90;;
52035;SDS011;38046;49.448;32.074;2022-11-18T12:08:46;5.68;;;4.88;;
52035;SDS011;38046;49.448;32.074;2022-11-18T12:18:57;5.70;;;4.35;;
52035;SDS011;38046;49.448;32.074;2022-11-18T12:24:28;6.82;;;5.38;;
52035;SDS011;38046;49.448;32.074;2022-11-18T12:32:29;6.93;;;5.32;;
52035;SDS011;38046;49.448;32.074;2022-11-18T12:35:00;6.80;;;5.43;;
52035;SDS011;38046;49.448;32.074;2022-11-18T12:53:39;5.57;;;4.32;;
52035;SDS011;38046;49.448;32.074;2022-11-18T13:01:18;4.97;;;3.95;;
52035;SDS011;38046;49.448;32.074;2022-11-18T13:03:46;6.00;;;4.63;;
52035;SDS011;38046;49.448;32.074;2022-11-18T13:08:43;6.25;;;4.93;;
52035;SDS011;38046;49.448;32.074;2022-11-18T13:11:15;5.03;;;4.32;;
52035;SDS011;38046;49.448;32.074;2022-11-18T13:14:01;5.50;;;4.72;;
52035;SDS011;38046;49.448;32.074;2022-11-18T13:16:48;5.95;;;4.63;;
52035;SDS011;38046;49.448;32.074;2022-11-18T13:19:32;6.05;;;4.45;;
52035;SDS011;38046;49.448;32.074;2022-11-18T13:21:58;5.05;;;4.35;;
52035;SDS011;38046;49.448;32.074;2022-11-18T13:24:47;6.95;;;5.13;;
52035;SDS011;38046;49.448;32.074;2022-11-18T13:27:57;5.50;;;4.50;;
52035;SDS011;38046;49.448;32.074;2022-11-18T13:30:26;5.47;;;4.63;;
52035;SDS011;38046;49.448;32.074;2022-11-18T13:32:53;5.95;;;4.65;;
52035;SDS011;38046;49.448;32.074;2022-11-18T13:35:22;5.88;;;4.45;;
52035;SDS011;38046;49.448;32.074;2022-11-18T13:37:58;6.30;;;5.00;;
52035;SDS011;38046;49.448;32.074;2022-11-18T13:42:52;6.40;;;4.43;;
52035;SDS011;38046;49.448;32.074;2022-11-18T13:45:17;5.80;;;4.40;;
52035;SDS011;38046;49.448;32.074;2022-11-18T13:47:53;5.80;;;4.95;;
52035;SDS011;38046;49.448;32.074;2022-11-18T13:50:29;5.43;;;4.60;;
52035;SDS011;38046;49.448;32.074;2022-11-18T13:55:30;7.15;;;5.22;;
52035;SDS011;38046;49.448;32.074;2022-11-18T14:00:27;8.82;;;6.30;;
52035;SDS011;38046;49.448;32.074;2022-11-18T14:02:56;7.93;;;6.30;;
52035;SDS011;38046;49.448;32.074;2022-11-18T14:05:24;7.22;;;5.68;;
52035;SDS011;38046;49.448;32.074;2022-11-18T14:07:54;6.63;;;5.32;;
52035;SDS011;38046;49.448;32.074;2022-11-18T14:10:33;6.43;;;5.30;;
52035;SDS011;38046;49.448;32.074;2022-11-18T14:13:15;6.60;;;5.10;;
52035;SDS011;38046;49.448;32.074;2022-11-18T14:15:51;6.25;;;4.68;;
52035;SDS011;38046;49.448;32.074;2022-11-18T14:18:19;6.47;;;5.03;;
52035;SDS011;38046;49.448;32.074;2022-11-18T14:20:53;6.38;;;4.70;;
52035;SDS011;38046;49.448;32.074;2022-11-18T14:23:25;6.43;;;5.00;;
52035;SDS011;38046;49.448;32.074;2022-11-18T14:25:52;6.47;;;4.95;;
52035;SDS011;38046;49.448;32.074;2022-11-18T14:33:29;6.78;;;5.68;;
52035;SDS011;38046;49.448;32.074;2022-11-18T14:38:28;6.38;;;5.38;;
52035;SDS011;38046;49.448;32.074;2022-11-18T14:41:08;7.60;;;4.85;;
52035;SDS011;38046;49.448;32.074;2022-11-18T14:43:35;7.03;;;5.38;;
52035;SDS011;38046;49.448;32.074;2022-11-18T14:46:05;7.55;;;5.50;;
52035;SDS011;38046;49.448;32.074;2022-11-18T14:48:39;5.75;;;5.13;;
52035;SDS011;38046;49.448;32.074;2022-11-18T14:51:05;5.53;;;4.88;;
52035;SDS011;38046;49.448;32.074;2022-11-18T14:53:35;7.00;;;4.90;;
52035;SDS011;38046;49.448;32.074;2022-11-18T14:56:01;6.60;;;5.20;;
52035;SDS011;38046;49.448;32.074;2022-11-18T14:58:28;7.65;;;5.20;;
52035;SDS011;38046;49.448;32.074;2022-11-18T15:00:53;7.63;;;6.05;;
52035;SDS011;38046;49.448;32.074;2022-11-18T15:03:19;6.95;;;5.13;;
52035;SDS011;38046;49.448;32.074;2022-11-18T15:05:45;6.95;;;5.82;;
52035;SDS011;38046;49.448;32.074;2022-11-18T15:08:10;8.00;;;5.30;;
52035;SDS011;38046;49.448;32.074;2022-11-18T15:10:36;8.93;;;7.22;;
52035;SDS011;38046;49.448;32.074;2022-11-18T15:13:02;8.07;;;6.35;;
52035;SDS011;38046;49.448;32.074;2022-11-18T15:15:27;8.13;;;6.35;;
52035;SDS011;38046;49.448;32.074;2022-11-18T15:17:53;7.63;;;6.28;;
52035;SDS011;38046;49.448;32.074;2022-11-18T15:20:19;7.63;;;6.13;;
52035;SDS011;38046;49.448;32.074;2022-11-18T15:22:46;8.13;;;5.60;;
52035;SDS011;38046;49.448;32.074;2022-11-18T15:25:12;6.35;;;4.97;;
52035;SDS011;38046;49.448;32.074;2022-11-18T15:27:38;7.03;;;5.15;;
52035;SDS011;38046;49.448;32.074;2022-11-18T15:30:03;7.97;;;4.90;;
52035;SDS011;38046;49.448;32.074;2022-11-18T15:32:30;7.45;;;5.00;;
52035;SDS011;38046;49.448;32.074;2022-11-18T15:34:56;6.13;;;4.85;;
52035;SDS011;38046;49.448;32.074;2022-11-18T15:37:21;7.38;;;5.22;;
52035;SDS011;38046;49.448;32.074;2022-11-18T15:39:47;6.03;;;4.88;;
52035;SDS011;38046;49.448;32.074;2022-11-18T15:42:18;7.50;;;5.43;;
52035;SDS011;38046;49.448;32.074;2022-11-18T15:44:44;6.32;;;4.93;;
52035;SDS011;38046;49.448;32.074;2022-11-18T15:47:10;6.50;;;4.72;;
52035;SDS011;38046;49.448;32.074;2022-11-18T15:49:35;6.18;;;4.45;;
52035;SDS011;38046;49.448;32.074;2022-11-18T15:52:01;6.57;;;5.35;;
52035;SDS011;38046;49.448;32.074;2022-11-18T15:54:27;6.63;;;5.05;;
52035;SDS011;38046;49.448;32.074;2022-11-18T15:56:52;7.15;;;5.30;;
52035;SDS011;38046;49.448;32.074;2022-11-18T15:59:18;8.32;;;5.68;;
52035;SDS011;38046;49.448;32.074;2022-11-18T16:01:45;7.13;;;5.55;;
52035;SDS011;38046;49.448;32.074;2022-11-18T18:04:21;8.05;;;6.03;;
52035;SDS011;38046;49.448;32.074;2022-11-18T18:06:47;8.93;;;6.60;;
52035;SDS011;38046;49.448;32.074;2022-11-18T18:09:15;9.10;;;6.93;;
52035;SDS011;38046;49.448;32.074;2022-11-18T18:11:42;9.63;;;6.72;;
52035;SDS011;38046;49.448;32.074;2022-11-18T18:14:08;9.95;;;7.40;;
52035;SDS011;38046;49.448;32.074;2022-11-18T18:16:37;10.05;;;7.10;;
52035;SDS011;38046;49.448;32.074;2022-11-18T18:19:15;7.90;;;6.28;;
52035;SDS011;38046;49.448;32.074;2022-11-18T18:21:42;10.10;;;7.60;;
52035;SDS011;38046;49.448;32.074;2022-11-18T18:24:08;9.85;;;6.90;;
52035;SDS011;38046;49.448;32.074;2022-11-18T18:26:34;10.00;;;7.00;;
52035;SDS011;38046;49.448;32.074;2022-11-18T18:29:00;10.93;;;7.32;;
52035;SDS011;38046;49.448;32.074;2022-11-18T18:31:27;10.20;;;7.85;;
52035;SDS011;38046;49.448;32.074;2022-11-18T18:33:53;11.10;;;7.32;;
52035;SDS011;38046;49.448;32.074;2022-11-18T18:36:19;9.77;;;6.60;;
52035;SDS011;38046;49.448;32.074;2022-11-18T18:38:45;12.60;;;7.95;;
52035;SDS011;38046;49.448;32.074;2022-11-18T18:41:18;9.93;;;7.63;;
52035;SDS011;38046;49.448;32.074;2022-11-18T18:43:45;11.00;;;7.63;;
52035;SDS011;38046;49.448;32.074;2022-11-18T18:46:12;11.70;;;8.85;;
52035;SDS011;38046;49.448;32.074;2022-11-18T18:49:04;11.93;;;8.52;;
52035;SDS011;38046;49.448;32.074;2022-11-18T18:51:34;10.85;;;7.65;;
52035;SDS011;38046;49.448;32.074;2022-11-18T18:54:04;10.35;;;7.32;;
52035;SDS011;38046;49.448;32.074;2022-11-18T18:56:31;12.30;;;9.07;;
52035;SDS011;38046;49.448;32.074;2022-11-18T18:58:58;9.65;;;7.07;;
52035;SDS011;38046;49.448;32.074;2022-11-18T19:01:24;9.82;;;7.40;;
52035;SDS011;38046;49.448;32.074;2022-11-18T19:03:55;14.18;;;9.63;;